sensor_id;sensor_type;location;lat;lon;timestamp;temperature;humidity
18339;DHT22;9295;44.484;11.240;2023-06-14T00:00:08;18.40;99.90
18339;DHT22;9295;44.484;11.240;2023-06-14T00:02:38;18.50;99.90
18339;DHT22;9295;44.484;11.240;2023-06-14T00:05:08;18.50;99.90
18339;DHT22;9295;44.484;11.240;2023-06-14T00:07:40;18.40;99.90
18339;DHT22;9295;44.484;11.240;2023-06-14T00:10:11;18.40;99.90
18339;DHT22;9295;44.484;11.240;2023-06-14T00:12:41;18.30;99.90
18339;DHT22;9295;44.484;11.240;2023-06-14T00:15:10;18.30;99.90
18339;DHT22;9295;44.484;11.240;2023-06-14T00:17:39;18.30;99.90
18339;DHT22;9295;44.484;11.240;2023-06-14T00:20:08;18.20;99.90
18339;DHT22;9295;44.484;11.240;2023-06-14T00:22:37;18.30;99.90
18339;DHT22;9295;44.484;11.240;2023-06-14T00:25:06;18.30;99.90
18339;DHT22;9295;44.484;11.240;2023-06-14T00:27:51;18.30;99.90
18339;DHT22;9295;44.484;11.240;2023-06-14T00:30:21;18.30;99.90
18339;DHT22;9295;44.484;11.240;2023-06-14T00:32:49;18.30;99.90
18339;DHT22;9295;44.484;11.240;2023-06-14T00:35:19;18.20;99.90
18339;DHT22;9295;44.484;11.240;2023-06-14T00:37:47;18.20;99.90
18339;DHT22;9295;44.484;11.240;2023-06-14T00:40:16;18.10;99.90
18339;DHT22;9295;44.484;11.240;2023-06-14T00:42:45;18.10;99.90
18339;DHT22;9295;44.484;11.240;2023-06-14T00:45:15;18.10;99.90
18339;DHT22;9295;44.484;11.240;2023-06-14T00:47:46;18.00;99.90
18339;DHT22;9295;44.484;11.240;2023-06-14T00:50:16;18.00;99.90
18339;DHT22;9295;44.484;11.240;2023-06-14T00:52:45;18.00;99.90
18339;DHT22;9295;44.484;11.240;2023-06-14T00:55:14;17.90;99.90
18339;DHT22;9295;44.484;11.240;2023-06-14T00:57:42;17.90;99.90
18339;DHT22;9295;44.484;11.240;2023-06-14T01:00:15;18.00;99.90
18339;DHT22;9295;44.484;11.240;2023-06-14T01:02:44;18.00;99.90
18339;DHT22;9295;44.484;11.240;2023-06-14T01:05:14;18.00;99.90
18339;DHT22;9295;44.484;11.240;2023-06-14T01:07:53;18.00;99.90
18339;DHT22;9295;44.484;11.240;2023-06-14T01:10:32;17.90;99.90
18339;DHT22;9295;44.484;11.240;2023-06-14T01:13:09;17.90;99.90
18339;DHT22;9295;44.484;11.240;2023-06-14T01:15:41;17.80;99.90
18339;DHT22;9295;44.484;11.240;2023-06-14T01:18:11;17.90;99.90
18339;DHT22;9295;44.484;11.240;2023-06-14T01:20:45;17.90;99.90
18339;DHT22;9295;44.484;11.240;2023-06-14T01:23:18;17.80;99.90
18339;DHT22;9295;44.484;11.240;2023-06-14T01:25:47;17.80;99.90
18339;DHT22;9295;44.484;11.240;2023-06-14T01:28:21;17.80;99.90
18339;DHT22;9295;44.484;11.240;2023-06-14T01:30:52;17.80;99.90
18339;DHT22;9295;44.484;11.240;2023-06-14T01:33:24;17.80;99.90
18339;DHT22;9295;44.484;11.240;2023-06-14T01:35:58;17.70;99.90
18339;DHT22;9295;44.484;11.240;2023-06-14T01:38:31;17.70;99.90
18339;DHT22;9295;44.484;11.240;2023-06-14T01:41:00;17.70;99.90
18339;DHT22;9295;44.484;11.240;2023-06-14T01:43:31;17.80;99.90
18339;DHT22;9295;44.484;11.240;2023-06-14T01:46:00;17.80;99.90
18339;DHT22;9295;44.484;11.240;2023-06-14T01:48:29;17.80;99.90
18339;DHT22;9295;44.484;11.240;2023-06-14T01:50:57;17.80;99.90
18339;DHT22;9295;44.484;11.240;2023-06-14T01:53:26;17.80;99.90
18339;DHT22;9295;44.484;11.240;2023-06-14T01:55:56;17.80;99.90
18339;DHT22;9295;44.484;11.240;2023-06-14T01:58:25;17.80;99.90
18339;DHT22;9295;44.484;11.240;2023-06-14T02:00:54;17.80;99.90
18339;DHT22;9295;44.484;11.240;2023-06-14T02:03:24;17.80;99.90
18339;DHT22;9295;44.484;11.240;2023-06-14T02:05:52;17.80;99.90
18339;DHT22;9295;44.484;11.240;2023-06-14T02:08:22;17.70;99.90
18339;DHT22;9295;44.484;11.240;2023-06-14T02:10:51;17.70;99.90
18339;DHT22;9295;44.484;11.240;2023-06-14T02:13:23;17.70;99.90
18339;DHT22;9295;44.484;11.240;2023-06-14T02:15:51;17.70;99.90
18339;DHT22;9295;44.484;11.240;2023-06-14T02:18:23;17.70;99.90
18339;DHT22;9295;44.484;11.240;2023-06-14T02:20:52;17.60;99.90
18339;DHT22;9295;44.484;11.240;2023-06-14T02:23:21;17.60;99.90
18339;DHT22;9295;44.484;11.240;2023-06-14T02:25:51;17.60;99.90
18339;DHT22;9295;44.484;11.240;2023-06-14T02:28:19;17.50;99.90
18339;DHT22;9295;44.484;11.240;2023-06-14T02:30:49;17.50;99.90
18339;DHT22;9295;44.484;11.240;2023-06-14T02:33:22;17.50;99.90
18339;DHT22;9295;44.484;11.240;2023-06-14T02:35:52;17.50;99.90
18339;DHT22;9295;44.484;11.240;2023-06-14T02:38:21;17.50;99.90
18339;DHT22;9295;44.484;11.240;2023-06-14T02:40:49;17.50;99.90
18339;DHT22;9295;44.484;11.240;2023-06-14T02:43:18;17.50;99.90
18339;DHT22;9295;44.484;11.240;2023-06-14T02:45:48;17.40;99.90
18339;DHT22;9295;44.484;11.240;2023-06-14T02:48:18;17.40;99.90
18339;DHT22;9295;44.484;11.240;2023-06-14T02:50:46;17.40;99.90
18339;DHT22;9295;44.484;11.240;2023-06-14T02:53:15;17.40;99.90
18339;DHT22;9295;44.484;11.240;2023-06-14T02:55:44;17.40;99.90
18339;DHT22;9295;44.484;11.240;2023-06-14T02:58:14;17.40;99.90
18339;DHT22;9295;44.484;11.240;2023-06-14T03:00:43;17.50;99.90
18339;DHT22;9295;44.484;11.240;2023-06-14T03:03:14;17.50;99.90
18339;DHT22;9295;44.484;11.240;2023-06-14T03:05:50;17.50;99.90
18339;DHT22;9295;44.484;11.240;2023-06-14T03:08:23;17.50;99.90
18339;DHT22;9295;44.484;11.240;2023-06-14T03:10:56;17.60;99.90
18339;DHT22;9295;44.484;11.240;2023-06-14T03:13:25;17.50;99.90
18339;DHT22;9295;44.484;11.240;2023-06-14T03:15:54;17.40;99.90
18339;DHT22;9295;44.484;11.240;2023-06-14T03:18:25;17.30;99.90
18339;DHT22;9295;44.484;11.240;2023-06-14T03:20:56;17.30;99.90
18339;DHT22;9295;44.484;11.240;2023-06-14T03:23:27;17.20;99.90
18339;DHT22;9295;44.484;11.240;2023-06-14T03:25:56;17.20;99.90
18339;DHT22;9295;44.484;11.240;2023-06-14T03:28:24;17.20;99.90
18339;DHT22;9295;44.484;11.240;2023-06-14T03:30:55;17.20;99.90
18339;DHT22;9295;44.484;11.240;2023-06-14T03:33:26;17.30;99.90
18339;DHT22;9295;44.484;11.240;2023-06-14T03:35:55;17.30;99.90
18339;DHT22;9295;44.484;11.240;2023-06-14T03:38:24;17.30;99.90
18339;DHT22;9295;44.484;11.240;2023-06-14T03:40:53;17.40;99.90
18339;DHT22;9295;44.484;11.240;2023-06-14T03:43:22;17.30;99.90
18339;DHT22;9295;44.484;11.240;2023-06-14T03:45:51;17.40;99.90
18339;DHT22;9295;44.484;11.240;2023-06-14T03:48:22;17.40;99.90
18339;DHT22;9295;44.484;11.240;2023-06-14T03:50:52;17.40;99.90
18339;DHT22;9295;44.484;11.240;2023-06-14T03:53:26;17.40;99.90
18339;DHT22;9295;44.484;11.240;2023-06-14T03:55:58;17.50;99.90
18339;DHT22;9295;44.484;11.240;2023-06-14T03:58:37;17.40;99.90
18339;DHT22;9295;44.484;11.240;2023-06-14T04:01:06;17.40;99.90
18339;DHT22;9295;44.484;11.240;2023-06-14T04:03:35;17.50;99.90
18339;DHT22;9295;44.484;11.240;2023-06-14T04:06:05;17.50;99.90
18339;DHT22;9295;44.484;11.240;2023-06-14T04:08:35;17.50;99.90
18339;DHT22;9295;44.484;11.240;2023-06-14T04:11:03;17.60;99.90
18339;DHT22;9295;44.484;11.240;2023-06-14T04:13:32;17.70;99.90
18339;DHT22;9295;44.484;11.240;2023-06-14T04:16:04;17.80;99.90
18339;DHT22;9295;44.484;11.240;2023-06-14T04:18:34;17.80;99.90
18339;DHT22;9295;44.484;11.240;2023-06-14T04:21:04;17.90;99.90
18339;DHT22;9295;44.484;11.240;2023-06-14T04:23:34;18.00;99.90
18339;DHT22;9295;44.484;11.240;2023-06-14T04:26:03;18.00;99.90
18339;DHT22;9295;44.484;11.240;2023-06-14T04:28:32;18.20;99.90
18339;DHT22;9295;44.484;11.240;2023-06-14T04:31:04;18.30;99.90
18339;DHT22;9295;44.484;11.240;2023-06-14T04:33:35;18.50;99.90
18339;DHT22;9295;44.484;11.240;2023-06-14T04:36:16;18.70;99.90
18339;DHT22;9295;44.484;11.240;2023-06-14T04:38:47;18.90;99.90
18339;DHT22;9295;44.484;11.240;2023-06-14T04:41:16;19.00;99.90
18339;DHT22;9295;44.484;11.240;2023-06-14T04:43:46;19.10;99.90
18339;DHT22;9295;44.484;11.240;2023-06-14T04:46:17;19.30;99.90
18339;DHT22;9295;44.484;11.240;2023-06-14T04:48:46;19.40;99.90
18339;DHT22;9295;44.484;11.240;2023-06-14T04:51:17;20.60;99.90
18339;DHT22;9295;44.484;11.240;2023-06-14T04:53:48;21.90;99.90
18339;DHT22;9295;44.484;11.240;2023-06-14T04:56:17;22.80;99.90
18339;DHT22;9295;44.484;11.240;2023-06-14T04:58:46;23.70;99.90
18339;DHT22;9295;44.484;11.240;2023-06-14T05:01:14;25.60;99.90
18339;DHT22;9295;44.484;11.240;2023-06-14T05:03:43;27.40;99.90
18339;DHT22;9295;44.484;11.240;2023-06-14T05:06:12;29.10;99.90
18339;DHT22;9295;44.484;11.240;2023-06-14T05:08:42;30.60;99.90
18339;DHT22;9295;44.484;11.240;2023-06-14T05:11:11;32.00;99.90
18339;DHT22;9295;44.484;11.240;2023-06-14T05:13:40;32.90;99.90
18339;DHT22;9295;44.484;11.240;2023-06-14T05:16:11;33.70;99.90
18339;DHT22;9295;44.484;11.240;2023-06-14T05:18:39;34.00;99.90
18339;DHT22;9295;44.484;11.240;2023-06-14T05:21:08;34.80;97.70
18339;DHT22;9295;44.484;11.240;2023-06-14T05:23:38;34.80;96.40
18339;DHT22;9295;44.484;11.240;2023-06-14T05:26:08;35.40;94.80
18339;DHT22;9295;44.484;11.240;2023-06-14T05:28:37;35.60;92.00
18339;DHT22;9295;44.484;11.240;2023-06-14T05:31:06;34.70;92.50
18339;DHT22;9295;44.484;11.240;2023-06-14T05:33:34;34.30;93.60
18339;DHT22;9295;44.484;11.240;2023-06-14T05:36:03;35.30;93.40
18339;DHT22;9295;44.484;11.240;2023-06-14T05:38:34;36.10;91.00
18339;DHT22;9295;44.484;11.240;2023-06-14T05:41:02;36.70;89.10
18339;DHT22;9295;44.484;11.240;2023-06-14T05:43:32;37.90;85.40
18339;DHT22;9295;44.484;11.240;2023-06-14T05:46:01;38.20;79.60
18339;DHT22;9295;44.484;11.240;2023-06-14T05:48:30;38.00;76.90
18339;DHT22;9295;44.484;11.240;2023-06-14T05:51:00;36.50;77.90
18339;DHT22;9295;44.484;11.240;2023-06-14T05:53:28;36.60;81.70
18339;DHT22;9295;44.484;11.240;2023-06-14T05:55:57;37.40;80.80
18339;DHT22;9295;44.484;11.240;2023-06-14T05:58:25;38.50;77.30
18339;DHT22;9295;44.484;11.240;2023-06-14T06:00:56;38.90;72.70
18339;DHT22;9295;44.484;11.240;2023-06-14T06:03:26;38.40;72.20
18339;DHT22;9295;44.484;11.240;2023-06-14T06:05:57;37.50;70.00
18339;DHT22;9295;44.484;11.240;2023-06-14T06:08:26;36.30;71.50
18339;DHT22;9295;44.484;11.240;2023-06-14T06:10:55;35.10;73.70
18339;DHT22;9295;44.484;11.240;2023-06-14T06:13:23;33.60;78.20
18339;DHT22;9295;44.484;11.240;2023-06-14T06:15:52;33.10;81.70
18339;DHT22;9295;44.484;11.240;2023-06-14T06:18:22;32.60;85.00
18339;DHT22;9295;44.484;11.240;2023-06-14T06:20:51;32.10;88.20
18339;DHT22;9295;44.484;11.240;2023-06-14T06:23:19;31.70;90.30
18339;DHT22;9295;44.484;11.240;2023-06-14T06:25:48;31.30;91.30
18339;DHT22;9295;44.484;11.240;2023-06-14T06:28:16;30.90;93.00
18339;DHT22;9295;44.484;11.240;2023-06-14T06:30:46;30.80;93.90
18339;DHT22;9295;44.484;11.240;2023-06-14T06:33:16;30.50;94.70
18339;DHT22;9295;44.484;11.240;2023-06-14T06:35:51;30.40;95.00
18339;DHT22;9295;44.484;11.240;2023-06-14T06:38:21;30.20;95.20
18339;DHT22;9295;44.484;11.240;2023-06-14T06:40:53;30.10;95.90
18339;DHT22;9295;44.484;11.240;2023-06-14T06:43:24;29.30;96.40
18339;DHT22;9295;44.484;11.240;2023-06-14T06:45:57;29.00;97.80
18339;DHT22;9295;44.484;11.240;2023-06-14T06:48:28;29.00;98.00
18339;DHT22;9295;44.484;11.240;2023-06-14T06:51:00;28.80;98.80
18339;DHT22;9295;44.484;11.240;2023-06-14T06:53:31;28.70;99.70
18339;DHT22;9295;44.484;11.240;2023-06-14T06:56:10;28.50;99.90
18339;DHT22;9295;44.484;11.240;2023-06-14T06:58:42;28.70;99.90
18339;DHT22;9295;44.484;11.240;2023-06-14T07:01:17;28.70;99.90
18339;DHT22;9295;44.484;11.240;2023-06-14T07:03:51;28.70;99.90
18339;DHT22;9295;44.484;11.240;2023-06-14T07:06:22;28.80;99.90
18339;DHT22;9295;44.484;11.240;2023-06-14T07:08:54;28.90;99.90
18339;DHT22;9295;44.484;11.240;2023-06-14T07:11:29;28.50;99.90
18339;DHT22;9295;44.484;11.240;2023-06-14T07:13:57;28.40;99.90
18339;DHT22;9295;44.484;11.240;2023-06-14T07:16:27;28.30;99.90
18339;DHT22;9295;44.484;11.240;2023-06-14T07:18:57;28.50;99.90
18339;DHT22;9295;44.484;11.240;2023-06-14T07:21:27;28.80;99.90
18339;DHT22;9295;44.484;11.240;2023-06-14T07:23:56;29.00;99.90
18339;DHT22;9295;44.484;11.240;2023-06-14T07:26:25;29.10;99.90
18339;DHT22;9295;44.484;11.240;2023-06-14T07:28:54;28.80;99.90
18339;DHT22;9295;44.484;11.240;2023-06-14T07:31:22;28.70;99.90
18339;DHT22;9295;44.484;11.240;2023-06-14T07:33:51;28.60;99.90
18339;DHT22;9295;44.484;11.240;2023-06-14T07:36:20;28.50;99.90
18339;DHT22;9295;44.484;11.240;2023-06-14T07:38:50;28.50;99.90
18339;DHT22;9295;44.484;11.240;2023-06-14T07:41:19;28.20;99.90
18339;DHT22;9295;44.484;11.240;2023-06-14T07:43:47;27.90;99.90
18339;DHT22;9295;44.484;11.240;2023-06-14T07:46:16;27.80;99.90
18339;DHT22;9295;44.484;11.240;2023-06-14T07:48:45;27.80;99.90
18339;DHT22;9295;44.484;11.240;2023-06-14T07:51:14;27.70;99.90
18339;DHT22;9295;44.484;11.240;2023-06-14T07:53:43;27.60;99.90
18339;DHT22;9295;44.484;11.240;2023-06-14T07:56:13;27.20;99.90
18339;DHT22;9295;44.484;11.240;2023-06-14T07:58:42;27.10;99.90
18339;DHT22;9295;44.484;11.240;2023-06-14T08:01:10;27.00;99.90
18339;DHT22;9295;44.484;11.240;2023-06-14T08:03:39;27.10;99.90
18339;DHT22;9295;44.484;11.240;2023-06-14T08:06:08;27.10;99.90
18339;DHT22;9295;44.484;11.240;2023-06-14T08:08:37;27.10;99.90
18339;DHT22;9295;44.484;11.240;2023-06-14T08:11:08;27.20;99.90
18339;DHT22;9295;44.484;11.240;2023-06-14T08:13:43;27.20;99.90
18339;DHT22;9295;44.484;11.240;2023-06-14T08:16:12;27.00;99.90
18339;DHT22;9295;44.484;11.240;2023-06-14T08:18:41;27.00;99.90
18339;DHT22;9295;44.484;11.240;2023-06-14T08:21:10;27.20;99.90
18339;DHT22;9295;44.484;11.240;2023-06-14T08:23:38;27.20;99.90
18339;DHT22;9295;44.484;11.240;2023-06-14T08:26:08;27.30;99.90
18339;DHT22;9295;44.484;11.240;2023-06-14T08:28:37;27.50;99.90
18339;DHT22;9295;44.484;11.240;2023-06-14T08:31:08;27.40;99.90
18339;DHT22;9295;44.484;11.240;2023-06-14T08:33:37;27.40;99.90
18339;DHT22;9295;44.484;11.240;2023-06-14T08:36:06;27.60;99.90
18339;DHT22;9295;44.484;11.240;2023-06-14T08:38:35;28.10;99.90
18339;DHT22;9295;44.484;11.240;2023-06-14T08:41:05;28.40;99.90
18339;DHT22;9295;44.484;11.240;2023-06-14T08:43:34;28.20;99.90
18339;DHT22;9295;44.484;11.240;2023-06-14T08:46:03;28.10;99.90
18339;DHT22;9295;44.484;11.240;2023-06-14T08:48:33;28.20;99.90
18339;DHT22;9295;44.484;11.240;2023-06-14T08:51:02;28.30;99.90
18339;DHT22;9295;44.484;11.240;2023-06-14T08:53:33;28.20;99.90
18339;DHT22;9295;44.484;11.240;2023-06-14T08:56:09;27.90;99.90
18339;DHT22;9295;44.484;11.240;2023-06-14T08:58:42;27.80;99.90
18339;DHT22;9295;44.484;11.240;2023-06-14T09:01:12;27.90;99.90
18339;DHT22;9295;44.484;11.240;2023-06-14T09:03:45;27.80;99.90
18339;DHT22;9295;44.484;11.240;2023-06-14T09:06:16;27.60;99.90
18339;DHT22;9295;44.484;11.240;2023-06-14T09:08:47;27.70;99.90
18339;DHT22;9295;44.484;11.240;2023-06-14T09:11:18;27.40;99.90
18339;DHT22;9295;44.484;11.240;2023-06-14T09:13:48;26.80;99.90
18339;DHT22;9295;44.484;11.240;2023-06-14T09:16:17;26.40;99.90
18339;DHT22;9295;44.484;11.240;2023-06-14T09:18:47;26.60;99.90
18339;DHT22;9295;44.484;11.240;2023-06-14T09:21:17;27.10;99.90
18339;DHT22;9295;44.484;11.240;2023-06-14T09:23:47;27.60;99.90
18339;DHT22;9295;44.484;11.240;2023-06-14T09:26:17;28.10;99.90
18339;DHT22;9295;44.484;11.240;2023-06-14T09:28:48;28.40;99.90
18339;DHT22;9295;44.484;11.240;2023-06-14T09:31:18;28.40;99.90
18339;DHT22;9295;44.484;11.240;2023-06-14T09:33:49;28.20;99.90
18339;DHT22;9295;44.484;11.240;2023-06-14T09:36:21;27.90;99.90
18339;DHT22;9295;44.484;11.240;2023-06-14T09:38:53;27.30;99.90
18339;DHT22;9295;44.484;11.240;2023-06-14T09:41:31;26.60;99.90
18339;DHT22;9295;44.484;11.240;2023-06-14T09:44:01;27.00;99.90
18339;DHT22;9295;44.484;11.240;2023-06-14T09:46:36;27.10;99.90
18339;DHT22;9295;44.484;11.240;2023-06-14T09:49:07;26.80;99.90
18339;DHT22;9295;44.484;11.240;2023-06-14T09:51:43;26.50;99.90
18339;DHT22;9295;44.484;11.240;2023-06-14T09:54:16;26.50;99.90
18339;DHT22;9295;44.484;11.240;2023-06-14T09:56:45;26.20;99.90
18339;DHT22;9295;44.484;11.240;2023-06-14T09:59:18;26.30;99.90
18339;DHT22;9295;44.484;11.240;2023-06-14T10:01:49;26.50;99.90
18339;DHT22;9295;44.484;11.240;2023-06-14T10:04:21;26.60;99.90
18339;DHT22;9295;44.484;11.240;2023-06-14T10:06:51;26.50;99.90
18339;DHT22;9295;44.484;11.240;2023-06-14T10:09:21;26.30;99.90
18339;DHT22;9295;44.484;11.240;2023-06-14T10:11:51;26.10;99.90
18339;DHT22;9295;44.484;11.240;2023-06-14T10:14:20;26.20;99.90
18339;DHT22;9295;44.484;11.240;2023-06-14T10:16:54;26.30;99.90
18339;DHT22;9295;44.484;11.240;2023-06-14T10:19:28;26.20;99.90
18339;DHT22;9295;44.484;11.240;2023-06-14T10:22:04;26.00;99.90
18339;DHT22;9295;44.484;11.240;2023-06-14T10:24:40;25.60;99.90
18339;DHT22;9295;44.484;11.240;2023-06-14T10:27:09;25.60;99.90
18339;DHT22;9295;44.484;11.240;2023-06-14T10:30:03;25.30;99.90
18339;DHT22;9295;44.484;11.240;2023-06-14T10:32:33;25.30;99.90
18339;DHT22;9295;44.484;11.240;2023-06-14T10:35:05;25.20;99.90
18339;DHT22;9295;44.484;11.240;2023-06-14T10:37:34;25.20;99.90
18339;DHT22;9295;44.484;11.240;2023-06-14T10:40:04;25.40;99.90
18339;DHT22;9295;44.484;11.240;2023-06-14T10:42:36;25.40;99.90
18339;DHT22;9295;44.484;11.240;2023-06-14T10:45:05;25.10;99.90
18339;DHT22;9295;44.484;11.240;2023-06-14T10:47:35;25.10;99.90
18339;DHT22;9295;44.484;11.240;2023-06-14T10:50:08;25.10;99.90
18339;DHT22;9295;44.484;11.240;2023-06-14T10:52:39;25.10;99.90
18339;DHT22;9295;44.484;11.240;2023-06-14T10:55:13;25.10;99.90
18339;DHT22;9295;44.484;11.240;2023-06-14T10:57:47;25.10;99.90
18339;DHT22;9295;44.484;11.240;2023-06-14T11:00:21;25.10;99.90
18339;DHT22;9295;44.484;11.240;2023-06-14T11:06:13;25.10;99.90
18339;DHT22;9295;44.484;11.240;2023-06-14T11:11:58;25.10;99.90
18339;DHT22;9295;44.484;11.240;2023-06-14T11:14:30;25.10;99.90
18339;DHT22;9295;44.484;11.240;2023-06-14T11:16:59;25.00;99.90
18339;DHT22;9295;44.484;11.240;2023-06-14T11:19:30;24.80;99.90
18339;DHT22;9295;44.484;11.240;2023-06-14T11:22:01;24.60;99.90
18339;DHT22;9295;44.484;11.240;2023-06-14T11:24:32;24.50;99.90
18339;DHT22;9295;44.484;11.240;2023-06-14T11:27:03;24.50;99.90
18339;DHT22;9295;44.484;11.240;2023-06-14T11:29:34;24.40;99.90
18339;DHT22;9295;44.484;11.240;2023-06-14T11:32:07;24.30;99.90
18339;DHT22;9295;44.484;11.240;2023-06-14T11:34:40;24.40;99.90
18339;DHT22;9295;44.484;11.240;2023-06-14T11:37:10;24.50;99.90
18339;DHT22;9295;44.484;11.240;2023-06-14T11:39:44;24.60;99.90
18339;DHT22;9295;44.484;11.240;2023-06-14T11:42:15;24.60;99.90
18339;DHT22;9295;44.484;11.240;2023-06-14T11:44:46;24.60;99.90
18339;DHT22;9295;44.484;11.240;2023-06-14T11:47:16;24.70;99.90
18339;DHT22;9295;44.484;11.240;2023-06-14T11:49:46;24.90;99.90
18339;DHT22;9295;44.484;11.240;2023-06-14T11:52:17;25.00;99.90
18339;DHT22;9295;44.484;11.240;2023-06-14T11:54:49;25.10;99.90
18339;DHT22;9295;44.484;11.240;2023-06-14T11:57:20;25.10;99.90
18339;DHT22;9295;44.484;11.240;2023-06-14T11:59:49;25.00;99.90
18339;DHT22;9295;44.484;11.240;2023-06-14T12:02:21;25.00;99.90
18339;DHT22;9295;44.484;11.240;2023-06-14T12:04:51;24.90;99.90
18339;DHT22;9295;44.484;11.240;2023-06-14T12:07:23;24.70;99.90
18339;DHT22;9295;44.484;11.240;2023-06-14T12:10:08;24.60;99.90
18339;DHT22;9295;44.484;11.240;2023-06-14T12:12:39;24.50;99.90
18339;DHT22;9295;44.484;11.240;2023-06-14T12:15:10;24.50;99.90
18339;DHT22;9295;44.484;11.240;2023-06-14T12:17:43;24.50;99.90
18339;DHT22;9295;44.484;11.240;2023-06-14T12:20:15;24.40;99.90
18339;DHT22;9295;44.484;11.240;2023-06-14T12:22:56;24.40;99.90
18339;DHT22;9295;44.484;11.240;2023-06-14T12:25:31;24.30;99.90
18339;DHT22;9295;44.484;11.240;2023-06-14T12:28:05;24.30;99.90
18339;DHT22;9295;44.484;11.240;2023-06-14T12:30:36;24.20;99.90
18339;DHT22;9295;44.484;11.240;2023-06-14T12:33:06;24.20;99.90
18339;DHT22;9295;44.484;11.240;2023-06-14T12:35:36;24.30;99.90
18339;DHT22;9295;44.484;11.240;2023-06-14T12:38:08;24.30;99.90
18339;DHT22;9295;44.484;11.240;2023-06-14T12:40:42;24.30;99.90
18339;DHT22;9295;44.484;11.240;2023-06-14T12:43:17;24.20;99.90
18339;DHT22;9295;44.484;11.240;2023-06-14T12:45:47;24.20;99.90
18339;DHT22;9295;44.484;11.240;2023-06-14T12:48:16;24.20;99.90
18339;DHT22;9295;44.484;11.240;2023-06-14T12:50:45;24.20;99.90
18339;DHT22;9295;44.484;11.240;2023-06-14T12:53:16;24.10;99.90
18339;DHT22;9295;44.484;11.240;2023-06-14T12:55:45;24.20;99.90
18339;DHT22;9295;44.484;11.240;2023-06-14T12:58:14;24.30;99.90
18339;DHT22;9295;44.484;11.240;2023-06-14T13:00:44;24.40;99.90
18339;DHT22;9295;44.484;11.240;2023-06-14T13:03:13;24.20;99.90
18339;DHT22;9295;44.484;11.240;2023-06-14T13:05:42;24.10;99.90
18339;DHT22;9295;44.484;11.240;2023-06-14T13:08:11;24.10;99.90
18339;DHT22;9295;44.484;11.240;2023-06-14T13:10:42;23.90;99.90
18339;DHT22;9295;44.484;11.240;2023-06-14T13:13:11;24.00;99.90
18339;DHT22;9295;44.484;11.240;2023-06-14T13:15:41;24.10;99.90
18339;DHT22;9295;44.484;11.240;2023-06-14T13:18:11;24.10;99.90
18339;DHT22;9295;44.484;11.240;2023-06-14T13:20:41;24.20;99.90
18339;DHT22;9295;44.484;11.240;2023-06-14T13:23:09;24.20;99.90
18339;DHT22;9295;44.484;11.240;2023-06-14T13:25:38;24.20;99.90
18339;DHT22;9295;44.484;11.240;2023-06-14T13:28:08;24.30;99.90
18339;DHT22;9295;44.484;11.240;2023-06-14T13:30:37;24.40;99.90
18339;DHT22;9295;44.484;11.240;2023-06-14T13:33:06;24.40;99.90
18339;DHT22;9295;44.484;11.240;2023-06-14T13:35:35;24.50;99.90
18339;DHT22;9295;44.484;11.240;2023-06-14T13:38:03;24.40;99.90
18339;DHT22;9295;44.484;11.240;2023-06-14T13:40:32;24.40;99.90
18339;DHT22;9295;44.484;11.240;2023-06-14T13:43:01;24.40;99.90
18339;DHT22;9295;44.484;11.240;2023-06-14T13:45:31;24.50;99.90
18339;DHT22;9295;44.484;11.240;2023-06-14T13:48:00;24.60;99.90
18339;DHT22;9295;44.484;11.240;2023-06-14T13:50:28;24.80;99.90
18339;DHT22;9295;44.484;11.240;2023-06-14T13:52:57;25.00;99.90
18339;DHT22;9295;44.484;11.240;2023-06-14T13:55:26;25.20;99.90
18339;DHT22;9295;44.484;11.240;2023-06-14T13:57:54;25.20;99.90
18339;DHT22;9295;44.484;11.240;2023-06-14T14:00:24;25.30;99.90
18339;DHT22;9295;44.484;11.240;2023-06-14T14:02:54;25.30;99.90
18339;DHT22;9295;44.484;11.240;2023-06-14T14:05:24;25.30;99.90
18339;DHT22;9295;44.484;11.240;2023-06-14T14:07:56;25.40;99.90
18339;DHT22;9295;44.484;11.240;2023-06-14T14:10:25;25.50;99.90
18339;DHT22;9295;44.484;11.240;2023-06-14T14:12:54;25.60;99.90
18339;DHT22;9295;44.484;11.240;2023-06-14T14:15:24;25.70;99.90
18339;DHT22;9295;44.484;11.240;2023-06-14T14:17:55;25.70;99.90
18339;DHT22;9295;44.484;11.240;2023-06-14T14:20:26;25.80;99.90
18339;DHT22;9295;44.484;11.240;2023-06-14T14:22:54;25.70;99.90
18339;DHT22;9295;44.484;11.240;2023-06-14T14:25:23;25.80;99.90
18339;DHT22;9295;44.484;11.240;2023-06-14T14:27:52;25.70;99.90
18339;DHT22;9295;44.484;11.240;2023-06-14T14:30:20;25.90;99.90
18339;DHT22;9295;44.484;11.240;2023-06-14T14:32:51;26.10;99.90
18339;DHT22;9295;44.484;11.240;2023-06-14T14:35:21;25.90;99.90
18339;DHT22;9295;44.484;11.240;2023-06-14T14:37:52;26.10;99.90
18339;DHT22;9295;44.484;11.240;2023-06-14T14:40:21;26.40;99.90
18339;DHT22;9295;44.484;11.240;2023-06-14T14:42:50;26.60;99.90
18339;DHT22;9295;44.484;11.240;2023-06-14T14:45:19;26.80;99.90
18339;DHT22;9295;44.484;11.240;2023-06-14T14:47:48;27.10;99.90
18339;DHT22;9295;44.484;11.240;2023-06-14T14:50:17;27.20;99.90
18339;DHT22;9295;44.484;11.240;2023-06-14T14:52:47;27.20;99.90
18339;DHT22;9295;44.484;11.240;2023-06-14T14:55:16;27.30;99.90
18339;DHT22;9295;44.484;11.240;2023-06-14T14:57:46;27.10;99.90
18339;DHT22;9295;44.484;11.240;2023-06-14T15:00:16;27.00;99.90
18339;DHT22;9295;44.484;11.240;2023-06-14T15:02:45;26.70;99.90
18339;DHT22;9295;44.484;11.240;2023-06-14T15:05:13;26.60;99.90
18339;DHT22;9295;44.484;11.240;2023-06-14T15:07:42;26.60;99.90
18339;DHT22;9295;44.484;11.240;2023-06-14T15:10:13;26.50;99.90
18339;DHT22;9295;44.484;11.240;2023-06-14T15:12:43;26.30;99.90
18339;DHT22;9295;44.484;11.240;2023-06-14T15:15:11;26.20;99.90
18339;DHT22;9295;44.484;11.240;2023-06-14T15:17:40;26.00;99.90
18339;DHT22;9295;44.484;11.240;2023-06-14T15:20:09;25.90;99.90
18339;DHT22;9295;44.484;11.240;2023-06-14T15:22:41;25.90;99.90
18339;DHT22;9295;44.484;11.240;2023-06-14T15:25:09;25.70;99.90
18339;DHT22;9295;44.484;11.240;2023-06-14T15:27:39;25.50;99.90
18339;DHT22;9295;44.484;11.240;2023-06-14T15:30:09;25.50;99.90
18339;DHT22;9295;44.484;11.240;2023-06-14T15:32:38;25.70;99.90
18339;DHT22;9295;44.484;11.240;2023-06-14T15:35:07;25.80;99.90
18339;DHT22;9295;44.484;11.240;2023-06-14T15:37:35;25.60;99.90
18339;DHT22;9295;44.484;11.240;2023-06-14T15:40:05;25.50;99.90
18339;DHT22;9295;44.484;11.240;2023-06-14T15:42:34;25.50;99.90
18339;DHT22;9295;44.484;11.240;2023-06-14T15:45:05;25.40;99.90
18339;DHT22;9295;44.484;11.240;2023-06-14T15:47:34;25.40;99.90
18339;DHT22;9295;44.484;11.240;2023-06-14T15:50:03;25.50;99.90
18339;DHT22;9295;44.484;11.240;2023-06-14T15:52:35;25.50;99.90
18339;DHT22;9295;44.484;11.240;2023-06-14T15:55:04;25.50;99.90